Terminal Aerodrome Forecast
Issued by NWS Greer, SC

Home | Current Version | Previous Version | Text Only | Print | Product List | Glossary On
Versions: 1 2 3 4 5 6 7 8 9 10 11 12 13 14 15 16 17 18 19 20 21 22 23 24
096
FTUS42 KGSP 231733
TAFGSP
TAF
KGSP 231733Z 2318/2418 23014G24KT P6SM FEW045
     FM240000 21012G20KT P6SM VCTS SCT050CB BKN150
     FM240300 21011G18KT P6SM VCSH BKN040 PROB30 2403/2406 4SM -TSRA
      OVC025CB
     FM240600 23012KT P6SM BKN025
     FM241100 24008KT P6SM BKN008
     FM241400 24009KT P6SM BKN030 PROB30 2416/2418 4SM -TSRA
      OVC020CB=

USA.gov is the U.S. government's official web portal to all federal, state and local government web resources and services.